Terminal Aerodrome Forecast
Issued by NWS

Home | Current Version | Previous Version | Text Only | Print | Product List | Glossary On
Versions: 1 2 3 4 5 6 7 8 9 10 11 12 13 14 15
000
FTAK31 PAJN 222300
TAFASI
TAF
PASI 222321Z 2300/2324 12009KT P6SM VCSH FEW030 BKN050 BKN060
     FM230500 10006KT P6SM SCT045 BKN060
     FM231100 10005KT P6SM VCSH SCT045 OVC070
     FM231400 10005KT P6SM -RA SCT025 OVC045=

USA.gov is the U.S. government's official web portal to all federal, state and local government web resources and services.